sensor_id;sensor_type;location;lat;lon;timestamp;P1;durP1;ratioP1;P2;durP2;ratioP2
76606;SDS011;65498;50.916;4.698;2023-03-20T00:01:47;15.23;;;7.08;;
76606;SDS011;65498;50.916;4.698;2023-03-20T00:04:15;19.30;;;8.33;;
76606;SDS011;65498;50.916;4.698;2023-03-20T00:06:43;18.67;;;7.70;;
76606;SDS011;65498;50.916;4.698;2023-03-20T00:09:10;19.32;;;8.20;;
76606;SDS011;65498;50.916;4.698;2023-03-20T00:11:43;16.45;;;7.10;;
76606;SDS011;65498;50.916;4.698;2023-03-20T00:14:13;14.70;;;6.90;;
76606;SDS011;65498;50.916;4.698;2023-03-20T00:16:44;15.48;;;7.17;;
76606;SDS011;65498;50.916;4.698;2023-03-20T00:19:17;16.52;;;6.72;;
76606;SDS011;65498;50.916;4.698;2023-03-20T00:21:47;18.30;;;7.47;;
76606;SDS011;65498;50.916;4.698;2023-03-20T00:24:16;17.40;;;7.90;;
76606;SDS011;65498;50.916;4.698;2023-03-20T00:26:43;13.68;;;7.00;;
76606;SDS011;65498;50.916;4.698;2023-03-20T00:29:22;16.17;;;7.53;;
76606;SDS011;65498;50.916;4.698;2023-03-20T00:31:47;15.05;;;7.05;;
76606;SDS011;65498;50.916;4.698;2023-03-20T00:34:16;13.28;;;6.30;;
76606;SDS011;65498;50.916;4.698;2023-03-20T00:36:45;16.90;;;6.80;;
76606;SDS011;65498;50.916;4.698;2023-03-20T00:39:13;13.78;;;6.45;;
76606;SDS011;65498;50.916;4.698;2023-03-20T00:41:41;17.85;;;6.78;;
76606;SDS011;65498;50.916;4.698;2023-03-20T00:44:25;14.45;;;6.83;;
76606;SDS011;65498;50.916;4.698;2023-03-20T00:47:03;13.98;;;6.72;;
76606;SDS011;65498;50.916;4.698;2023-03-20T00:49:50;15.63;;;7.05;;
76606;SDS011;65498;50.916;4.698;2023-03-20T00:52:18;14.23;;;6.17;;
76606;SDS011;65498;50.916;4.698;2023-03-20T00:54:47;14.90;;;7.10;;
76606;SDS011;65498;50.916;4.698;2023-03-20T00:57:19;14.00;;;7.05;;
76606;SDS011;65498;50.916;4.698;2023-03-20T01:02:54;11.15;;;5.92;;
76606;SDS011;65498;50.916;4.698;2023-03-20T01:07:51;12.75;;;6.33;;
76606;SDS011;65498;50.916;4.698;2023-03-20T01:10:19;11.83;;;6.22;;
76606;SDS011;65498;50.916;4.698;2023-03-20T01:12:48;10.50;;;5.58;;
76606;SDS011;65498;50.916;4.698;2023-03-20T01:15:17;13.60;;;5.65;;
76606;SDS011;65498;50.916;4.698;2023-03-20T01:17:47;9.80;;;4.72;;
76606;SDS011;65498;50.916;4.698;2023-03-20T01:20:16;11.83;;;5.50;;
76606;SDS011;65498;50.916;4.698;2023-03-20T01:22:45;11.68;;;5.75;;
76606;SDS011;65498;50.916;4.698;2023-03-20T01:25:13;11.57;;;5.60;;
76606;SDS011;65498;50.916;4.698;2023-03-20T01:27:47;14.75;;;6.60;;
76606;SDS011;65498;50.916;4.698;2023-03-20T01:30:15;11.90;;;5.28;;
76606;SDS011;65498;50.916;4.698;2023-03-20T01:32:43;9.78;;;5.08;;
76606;SDS011;65498;50.916;4.698;2023-03-20T01:35:12;11.88;;;6.33;;
76606;SDS011;65498;50.916;4.698;2023-03-20T01:37:41;12.23;;;5.78;;
76606;SDS011;65498;50.916;4.698;2023-03-20T01:40:35;9.90;;;5.20;;
76606;SDS011;65498;50.916;4.698;2023-03-20T01:42:44;10.43;;;4.97;;
76606;SDS011;65498;50.916;4.698;2023-03-20T01:45:15;9.70;;;4.95;;
76606;SDS011;65498;50.916;4.698;2023-03-20T01:47:45;13.25;;;5.22;;
76606;SDS011;65498;50.916;4.698;2023-03-20T01:50:30;8.25;;;4.70;;
76606;SDS011;65498;50.916;4.698;2023-03-20T01:53:05;9.55;;;5.00;;
76606;SDS011;65498;50.916;4.698;2023-03-20T01:55:29;10.10;;;4.72;;
76606;SDS011;65498;50.916;4.698;2023-03-20T01:57:59;10.38;;;5.28;;
76606;SDS011;65498;50.916;4.698;2023-03-20T02:00:28;9.88;;;4.72;;
76606;SDS011;65498;50.916;4.698;2023-03-20T02:02:56;9.78;;;4.60;;
76606;SDS011;65498;50.916;4.698;2023-03-20T02:05:25;10.95;;;5.10;;
76606;SDS011;65498;50.916;4.698;2023-03-20T02:07:55;10.10;;;5.15;;
76606;SDS011;65498;50.916;4.698;2023-03-20T02:10:23;9.33;;;4.72;;
76606;SDS011;65498;50.916;4.698;2023-03-20T02:12:51;9.35;;;4.78;;
76606;SDS011;65498;50.916;4.698;2023-03-20T02:15:20;10.68;;;4.40;;
76606;SDS011;65498;50.916;4.698;2023-03-20T02:17:47;10.45;;;5.00;;
76606;SDS011;65498;50.916;4.698;2023-03-20T02:20:32;10.35;;;5.17;;
76606;SDS011;65498;50.916;4.698;2023-03-20T02:26:13;9.43;;;4.60;;
76606;SDS011;65498;50.916;4.698;2023-03-20T02:34:31;9.63;;;4.40;;
76606;SDS011;65498;50.916;4.698;2023-03-20T02:37:20;8.95;;;4.45;;
76606;SDS011;65498;50.916;4.698;2023-03-20T02:40:12;9.65;;;4.10;;
76606;SDS011;65498;50.916;4.698;2023-03-20T02:45:46;10.18;;;4.80;;
76606;SDS011;65498;50.916;4.698;2023-03-20T02:48:26;9.38;;;4.53;;
76606;SDS011;65498;50.916;4.698;2023-03-20T02:51:00;9.65;;;4.53;;
76606;SDS011;65498;50.916;4.698;2023-03-20T02:56:29;9.18;;;4.87;;
76606;SDS011;65498;50.916;4.698;2023-03-20T02:59:01;8.05;;;4.30;;
76606;SDS011;65498;50.916;4.698;2023-03-20T03:01:35;8.58;;;4.12;;
76606;SDS011;65498;50.916;4.698;2023-03-20T03:04:18;8.55;;;4.08;;
76606;SDS011;65498;50.916;4.698;2023-03-20T03:06:51;7.75;;;3.62;;
76606;SDS011;65498;50.916;4.698;2023-03-20T03:09:30;9.15;;;4.62;;
76606;SDS011;65498;50.916;4.698;2023-03-20T03:12:05;9.48;;;4.17;;
76606;SDS011;65498;50.916;4.698;2023-03-20T03:14:38;7.80;;;4.12;;
76606;SDS011;65498;50.916;4.698;2023-03-20T03:17:14;7.53;;;3.70;;
76606;SDS011;65498;50.916;4.698;2023-03-20T03:19:48;8.50;;;4.00;;
76606;SDS011;65498;50.916;4.698;2023-03-20T03:22:17;8.93;;;4.08;;
76606;SDS011;65498;50.916;4.698;2023-03-20T03:24:47;7.45;;;3.92;;
76606;SDS011;65498;50.916;4.698;2023-03-20T03:27:37;8.10;;;4.35;;
76606;SDS011;65498;50.916;4.698;2023-03-20T03:30:05;7.95;;;3.77;;
76606;SDS011;65498;50.916;4.698;2023-03-20T03:32:33;8.30;;;4.10;;
76606;SDS011;65498;50.916;4.698;2023-03-20T03:35:03;8.15;;;3.87;;
76606;SDS011;65498;50.916;4.698;2023-03-20T03:43:29;8.78;;;4.03;;
76606;SDS011;65498;50.916;4.698;2023-03-20T03:45:17;8.78;;;4.08;;
76606;SDS011;65498;50.916;4.698;2023-03-20T03:50:20;9.10;;;4.40;;
76606;SDS011;65498;50.916;4.698;2023-03-20T03:52:53;9.80;;;3.87;;
76606;SDS011;65498;50.916;4.698;2023-03-20T03:55:24;8.75;;;4.42;;
76606;SDS011;65498;50.916;4.698;2023-03-20T03:57:56;8.00;;;3.60;;
76606;SDS011;65498;50.916;4.698;2023-03-20T04:00:25;7.95;;;3.87;;
76606;SDS011;65498;50.916;4.698;2023-03-20T04:02:55;8.50;;;4.05;;
76606;SDS011;65498;50.916;4.698;2023-03-20T04:05:24;7.97;;;3.80;;
76606;SDS011;65498;50.916;4.698;2023-03-20T04:07:58;8.08;;;4.28;;
76606;SDS011;65498;50.916;4.698;2023-03-20T04:10:27;8.58;;;3.72;;
76606;SDS011;65498;50.916;4.698;2023-03-20T04:12:54;7.28;;;3.50;;
76606;SDS011;65498;50.916;4.698;2023-03-20T04:15:22;8.83;;;3.90;;
76606;SDS011;65498;50.916;4.698;2023-03-20T04:17:51;8.08;;;4.25;;
76606;SDS011;65498;50.916;4.698;2023-03-20T04:20:19;8.85;;;3.62;;
76606;SDS011;65498;50.916;4.698;2023-03-20T04:22:47;7.45;;;3.98;;
76606;SDS011;65498;50.916;4.698;2023-03-20T04:25:16;8.93;;;4.45;;
76606;SDS011;65498;50.916;4.698;2023-03-20T04:27:48;7.75;;;3.65;;
76606;SDS011;65498;50.916;4.698;2023-03-20T04:30:16;8.70;;;4.03;;
76606;SDS011;65498;50.916;4.698;2023-03-20T04:32:44;9.15;;;4.70;;
76606;SDS011;65498;50.916;4.698;2023-03-20T04:35:11;8.90;;;4.00;;
76606;SDS011;65498;50.916;4.698;2023-03-20T04:37:39;9.23;;;4.05;;
76606;SDS011;65498;50.916;4.698;2023-03-20T04:40:06;8.75;;;3.77;;
76606;SDS011;65498;50.916;4.698;2023-03-20T04:42:34;8.10;;;4.25;;
76606;SDS011;65498;50.916;4.698;2023-03-20T04:45:02;7.90;;;4.17;;
76606;SDS011;65498;50.916;4.698;2023-03-20T04:47:30;7.15;;;3.47;;
76606;SDS011;65498;50.916;4.698;2023-03-20T04:49:58;9.70;;;3.92;;
76606;SDS011;65498;50.916;4.698;2023-03-20T04:52:25;7.15;;;3.62;;
76606;SDS011;65498;50.916;4.698;2023-03-20T04:54:53;7.90;;;4.00;;
76606;SDS011;65498;50.916;4.698;2023-03-20T04:57:20;7.90;;;4.10;;
76606;SDS011;65498;50.916;4.698;2023-03-20T04:59:48;8.18;;;3.83;;
76606;SDS011;65498;50.916;4.698;2023-03-20T05:02:15;9.10;;;4.20;;
76606;SDS011;65498;50.916;4.698;2023-03-20T05:04:43;7.95;;;4.25;;
76606;SDS011;65498;50.916;4.698;2023-03-20T05:07:11;7.95;;;3.90;;
76606;SDS011;65498;50.916;4.698;2023-03-20T05:09:38;10.30;;;4.90;;
76606;SDS011;65498;50.916;4.698;2023-03-20T05:12:06;8.55;;;4.30;;
76606;SDS011;65498;50.916;4.698;2023-03-20T05:14:34;7.70;;;3.80;;
76606;SDS011;65498;50.916;4.698;2023-03-20T05:17:01;9.10;;;4.40;;
76606;SDS011;65498;50.916;4.698;2023-03-20T05:19:29;8.33;;;4.03;;
76606;SDS011;65498;50.916;4.698;2023-03-20T05:21:56;7.83;;;4.00;;
76606;SDS011;65498;50.916;4.698;2023-03-20T05:24:24;8.45;;;4.75;;
76606;SDS011;65498;50.916;4.698;2023-03-20T05:26:53;9.38;;;3.65;;
76606;SDS011;65498;50.916;4.698;2023-03-20T05:29:21;7.85;;;3.85;;
76606;SDS011;65498;50.916;4.698;2023-03-20T05:31:49;7.72;;;3.85;;
76606;SDS011;65498;50.916;4.698;2023-03-20T05:34:16;8.05;;;3.75;;
76606;SDS011;65498;50.916;4.698;2023-03-20T05:36:44;8.95;;;4.12;;
76606;SDS011;65498;50.916;4.698;2023-03-20T05:39:11;9.55;;;4.15;;
76606;SDS011;65498;50.916;4.698;2023-03-20T05:41:39;8.43;;;3.85;;
76606;SDS011;65498;50.916;4.698;2023-03-20T05:44:06;8.53;;;4.08;;
76606;SDS011;65498;50.916;4.698;2023-03-20T05:46:34;7.33;;;3.75;;
76606;SDS011;65498;50.916;4.698;2023-03-20T05:49:01;7.67;;;4.05;;
76606;SDS011;65498;50.916;4.698;2023-03-20T05:51:29;8.40;;;4.62;;
76606;SDS011;65498;50.916;4.698;2023-03-20T05:53:56;8.48;;;4.12;;
76606;SDS011;65498;50.916;4.698;2023-03-20T05:56:24;8.80;;;4.20;;
76606;SDS011;65498;50.916;4.698;2023-03-20T05:58:52;8.70;;;3.85;;
76606;SDS011;65498;50.916;4.698;2023-03-20T06:01:19;7.53;;;3.47;;
76606;SDS011;65498;50.916;4.698;2023-03-20T06:03:47;10.08;;;3.90;;
76606;SDS011;65498;50.916;4.698;2023-03-20T06:06:15;7.70;;;4.03;;
76606;SDS011;65498;50.916;4.698;2023-03-20T06:08:43;8.38;;;3.83;;
76606;SDS011;65498;50.916;4.698;2023-03-20T06:11:11;7.95;;;3.58;;
76606;SDS011;65498;50.916;4.698;2023-03-20T06:13:39;8.45;;;4.33;;
76606;SDS011;65498;50.916;4.698;2023-03-20T06:16:06;8.85;;;3.55;;
76606;SDS011;65498;50.916;4.698;2023-03-20T06:18:34;9.10;;;4.45;;
76606;SDS011;65498;50.916;4.698;2023-03-20T06:21:03;8.33;;;3.55;;
76606;SDS011;65498;50.916;4.698;2023-03-20T06:23:32;8.25;;;3.62;;
76606;SDS011;65498;50.916;4.698;2023-03-20T06:26:01;8.58;;;3.50;;
76606;SDS011;65498;50.916;4.698;2023-03-20T06:28:28;8.70;;;4.00;;
76606;SDS011;65498;50.916;4.698;2023-03-20T06:30:56;7.70;;;3.67;;
76606;SDS011;65498;50.916;4.698;2023-03-20T06:33:24;10.78;;;4.17;;
76606;SDS011;65498;50.916;4.698;2023-03-20T06:35:51;9.05;;;4.30;;
76606;SDS011;65498;50.916;4.698;2023-03-20T06:38:19;11.10;;;4.55;;
76606;SDS011;65498;50.916;4.698;2023-03-20T06:40:47;10.72;;;4.33;;
76606;SDS011;65498;50.916;4.698;2023-03-20T06:43:14;10.25;;;4.25;;
76606;SDS011;65498;50.916;4.698;2023-03-20T06:45:42;12.53;;;4.67;;
76606;SDS011;65498;50.916;4.698;2023-03-20T06:48:09;10.10;;;4.85;;
76606;SDS011;65498;50.916;4.698;2023-03-20T06:50:37;12.35;;;4.28;;
76606;SDS011;65498;50.916;4.698;2023-03-20T06:53:04;10.08;;;4.30;;
76606;SDS011;65498;50.916;4.698;2023-03-20T06:55:32;11.45;;;5.03;;
76606;SDS011;65498;50.916;4.698;2023-03-20T06:57:59;11.20;;;4.45;;
76606;SDS011;65498;50.916;4.698;2023-03-20T07:00:27;10.35;;;5.87;;
76606;SDS011;65498;50.916;4.698;2023-03-20T07:02:54;11.40;;;4.58;;
76606;SDS011;65498;50.916;4.698;2023-03-20T07:05:22;11.60;;;4.20;;
76606;SDS011;65498;50.916;4.698;2023-03-20T07:07:50;9.18;;;4.75;;
76606;SDS011;65498;50.916;4.698;2023-03-20T07:10:17;10.18;;;4.42;;
76606;SDS011;65498;50.916;4.698;2023-03-20T07:12:45;12.00;;;4.42;;
76606;SDS011;65498;50.916;4.698;2023-03-20T07:15:13;13.10;;;4.95;;
76606;SDS011;65498;50.916;4.698;2023-03-20T07:17:40;10.03;;;4.15;;
76606;SDS011;65498;50.916;4.698;2023-03-20T07:20:08;9.28;;;4.40;;
76606;SDS011;65498;50.916;4.698;2023-03-20T07:22:36;10.25;;;4.25;;
76606;SDS011;65498;50.916;4.698;2023-03-20T07:25:06;8.88;;;3.98;;
76606;SDS011;65498;50.916;4.698;2023-03-20T07:27:35;10.68;;;4.53;;
76606;SDS011;65498;50.916;4.698;2023-03-20T07:30:03;11.00;;;3.98;;
76606;SDS011;65498;50.916;4.698;2023-03-20T07:32:32;10.13;;;4.00;;
76606;SDS011;65498;50.916;4.698;2023-03-20T07:35:00;9.15;;;4.25;;
76606;SDS011;65498;50.916;4.698;2023-03-20T07:37:27;8.63;;;4.22;;
76606;SDS011;65498;50.916;4.698;2023-03-20T07:39:54;8.85;;;4.35;;
76606;SDS011;65498;50.916;4.698;2023-03-20T07:42:22;8.80;;;4.20;;
76606;SDS011;65498;50.916;4.698;2023-03-20T07:44:50;9.00;;;3.92;;
76606;SDS011;65498;50.916;4.698;2023-03-20T07:47:17;11.45;;;4.75;;
76606;SDS011;65498;50.916;4.698;2023-03-20T07:49:45;8.78;;;3.60;;
76606;SDS011;65498;50.916;4.698;2023-03-20T07:52:13;7.70;;;3.70;;
76606;SDS011;65498;50.916;4.698;2023-03-20T07:54:41;8.65;;;3.87;;
76606;SDS011;65498;50.916;4.698;2023-03-20T07:57:09;13.85;;;4.20;;
76606;SDS011;65498;50.916;4.698;2023-03-20T07:59:37;9.90;;;3.75;;
76606;SDS011;65498;50.916;4.698;2023-03-20T08:02:04;7.83;;;3.70;;
76606;SDS011;65498;50.916;4.698;2023-03-20T08:04:32;9.68;;;4.28;;
76606;SDS011;65498;50.916;4.698;2023-03-20T08:07:00;9.78;;;3.70;;
76606;SDS011;65498;50.916;4.698;2023-03-20T08:09:27;9.33;;;4.15;;
76606;SDS011;65498;50.916;4.698;2023-03-20T08:11:55;10.23;;;3.65;;
76606;SDS011;65498;50.916;4.698;2023-03-20T08:14:23;10.58;;;3.90;;
76606;SDS011;65498;50.916;4.698;2023-03-20T08:16:50;7.95;;;3.35;;
76606;SDS011;65498;50.916;4.698;2023-03-20T08:19:18;7.62;;;3.27;;
76606;SDS011;65498;50.916;4.698;2023-03-20T08:21:46;11.55;;;3.83;;
76606;SDS011;65498;50.916;4.698;2023-03-20T08:24:14;9.80;;;3.92;;
76606;SDS011;65498;50.916;4.698;2023-03-20T08:26:42;8.90;;;3.50;;
76606;SDS011;65498;50.916;4.698;2023-03-20T08:29:11;7.87;;;3.65;;
76606;SDS011;65498;50.916;4.698;2023-03-20T08:31:40;8.00;;;3.67;;
76606;SDS011;65498;50.916;4.698;2023-03-20T08:34:07;8.33;;;3.37;;
76606;SDS011;65498;50.916;4.698;2023-03-20T08:36:35;10.50;;;3.70;;
76606;SDS011;65498;50.916;4.698;2023-03-20T08:39:04;9.43;;;4.10;;
76606;SDS011;65498;50.916;4.698;2023-03-20T08:41:32;9.10;;;3.98;;
76606;SDS011;65498;50.916;4.698;2023-03-20T08:44:02;9.10;;;3.80;;
76606;SDS011;65498;50.916;4.698;2023-03-20T08:46:30;8.35;;;3.70;;
76606;SDS011;65498;50.916;4.698;2023-03-20T08:48:58;8.05;;;3.27;;
76606;SDS011;65498;50.916;4.698;2023-03-20T08:51:25;10.68;;;3.40;;
76606;SDS011;65498;50.916;4.698;2023-03-20T08:53:53;9.55;;;3.25;;
76606;SDS011;65498;50.916;4.698;2023-03-20T08:56:20;7.67;;;2.98;;
76606;SDS011;65498;50.916;4.698;2023-03-20T08:58:48;11.25;;;3.52;;
76606;SDS011;65498;50.916;4.698;2023-03-20T09:01:17;8.05;;;3.47;;
76606;SDS011;65498;50.916;4.698;2023-03-20T09:03:45;11.28;;;3.98;;
76606;SDS011;65498;50.916;4.698;2023-03-20T09:06:13;10.53;;;3.30;;
76606;SDS011;65498;50.916;4.698;2023-03-20T09:08:40;10.75;;;3.62;;
76606;SDS011;65498;50.916;4.698;2023-03-20T09:11:08;8.30;;;3.22;;
76606;SDS011;65498;50.916;4.698;2023-03-20T09:13:35;8.73;;;3.20;;
76606;SDS011;65498;50.916;4.698;2023-03-20T09:16:03;9.55;;;3.80;;
76606;SDS011;65498;50.916;4.698;2023-03-20T09:18:31;7.60;;;2.83;;
76606;SDS011;65498;50.916;4.698;2023-03-20T09:20:59;8.63;;;3.42;;
76606;SDS011;65498;50.916;4.698;2023-03-20T09:23:26;8.35;;;3.25;;
76606;SDS011;65498;50.916;4.698;2023-03-20T09:25:54;7.35;;;3.45;;
76606;SDS011;65498;50.916;4.698;2023-03-20T09:28:22;7.12;;;3.05;;
76606;SDS011;65498;50.916;4.698;2023-03-20T09:30:53;7.65;;;3.00;;
76606;SDS011;65498;50.916;4.698;2023-03-20T09:33:22;8.85;;;3.30;;
76606;SDS011;65498;50.916;4.698;2023-03-20T09:35:51;8.15;;;3.20;;
76606;SDS011;65498;50.916;4.698;2023-03-20T09:38:19;9.03;;;3.17;;
76606;SDS011;65498;50.916;4.698;2023-03-20T09:40:53;7.08;;;2.85;;
76606;SDS011;65498;50.916;4.698;2023-03-20T09:43:36;9.90;;;3.10;;
76606;SDS011;65498;50.916;4.698;2023-03-20T09:46:06;6.55;;;2.75;;
76606;SDS011;65498;50.916;4.698;2023-03-20T09:48:46;9.73;;;3.58;;
76606;SDS011;65498;50.916;4.698;2023-03-20T09:54:26;8.10;;;2.83;;
76606;SDS011;65498;50.916;4.698;2023-03-20T09:56:42;8.08;;;3.27;;
76606;SDS011;65498;50.916;4.698;2023-03-20T09:59:12;8.45;;;3.62;;
76606;SDS011;65498;50.916;4.698;2023-03-20T10:01:49;7.75;;;3.30;;
76606;SDS011;65498;50.916;4.698;2023-03-20T10:04:22;9.43;;;3.30;;
76606;SDS011;65498;50.916;4.698;2023-03-20T10:06:52;10.15;;;2.75;;
76606;SDS011;65498;50.916;4.698;2023-03-20T10:09:22;8.40;;;3.58;;
76606;SDS011;65498;50.916;4.698;2023-03-20T10:17:23;7.60;;;3.15;;
76606;SDS011;65498;50.916;4.698;2023-03-20T10:20:15;7.92;;;2.83;;
76606;SDS011;65498;50.916;4.698;2023-03-20T10:23:06;12.40;;;3.12;;
76606;SDS011;65498;50.916;4.698;2023-03-20T10:25:38;8.68;;;2.75;;
76606;SDS011;65498;50.916;4.698;2023-03-20T10:28:11;8.78;;;3.10;;
76606;SDS011;65498;50.916;4.698;2023-03-20T10:33:22;6.30;;;2.40;;
76606;SDS011;65498;50.916;4.698;2023-03-20T10:38:48;9.13;;;2.70;;
76606;SDS011;65498;50.916;4.698;2023-03-20T10:41:20;9.15;;;2.85;;
76606;SDS011;65498;50.916;4.698;2023-03-20T10:43:50;8.98;;;2.45;;
76606;SDS011;65498;50.916;4.698;2023-03-20T10:46:24;7.10;;;2.70;;
76606;SDS011;65498;50.916;4.698;2023-03-20T10:49:02;6.90;;;2.70;;
76606;SDS011;65498;50.916;4.698;2023-03-20T10:51:52;6.78;;;2.25;;
76606;SDS011;65498;50.916;4.698;2023-03-20T10:54:26;8.78;;;2.37;;
76606;SDS011;65498;50.916;4.698;2023-03-20T10:56:56;11.33;;;3.08;;
76606;SDS011;65498;50.916;4.698;2023-03-20T11:02:14;7.67;;;2.30;;
76606;SDS011;65498;50.916;4.698;2023-03-20T11:04:38;8.80;;;2.30;;
76606;SDS011;65498;50.916;4.698;2023-03-20T11:07:12;10.40;;;2.70;;
76606;SDS011;65498;50.916;4.698;2023-03-20T11:09:42;6.53;;;2.17;;
76606;SDS011;65498;50.916;4.698;2023-03-20T11:12:16;8.53;;;3.08;;
76606;SDS011;65498;50.916;4.698;2023-03-20T11:14:45;13.40;;;2.95;;
76606;SDS011;65498;50.916;4.698;2023-03-20T11:17:13;7.22;;;2.47;;
76606;SDS011;65498;50.916;4.698;2023-03-20T11:19:42;8.30;;;2.40;;
76606;SDS011;65498;50.916;4.698;2023-03-20T11:22:22;8.85;;;2.95;;
76606;SDS011;65498;50.916;4.698;2023-03-20T11:24:53;13.60;;;2.67;;
76606;SDS011;65498;50.916;4.698;2023-03-20T11:27:24;11.28;;;2.52;;
76606;SDS011;65498;50.916;4.698;2023-03-20T11:29:53;9.93;;;2.75;;
76606;SDS011;65498;50.916;4.698;2023-03-20T11:32:35;13.32;;;3.45;;
76606;SDS011;65498;50.916;4.698;2023-03-20T11:40:20;12.18;;;3.90;;
76606;SDS011;65498;50.916;4.698;2023-03-20T11:43:12;11.00;;;3.95;;
76606;SDS011;65498;50.916;4.698;2023-03-20T11:45:33;10.00;;;3.35;;
76606;SDS011;65498;50.916;4.698;2023-03-20T11:48:02;9.53;;;3.00;;
76606;SDS011;65498;50.916;4.698;2023-03-20T11:50:32;10.23;;;3.22;;
76606;SDS011;65498;50.916;4.698;2023-03-20T11:53:03;9.05;;;3.00;;
76606;SDS011;65498;50.916;4.698;2023-03-20T11:55:42;10.48;;;2.87;;
76606;SDS011;65498;50.916;4.698;2023-03-20T11:58:14;11.63;;;2.95;;
76606;SDS011;65498;50.916;4.698;2023-03-20T12:00:46;11.40;;;2.67;;
76606;SDS011;65498;50.916;4.698;2023-03-20T12:03:33;9.30;;;2.92;;
76606;SDS011;65498;50.916;4.698;2023-03-20T12:06:19;12.20;;;3.10;;
76606;SDS011;65498;50.916;4.698;2023-03-20T12:09:09;7.20;;;2.87;;
76606;SDS011;65498;50.916;4.698;2023-03-20T12:11:30;8.73;;;2.80;;
76606;SDS011;65498;50.916;4.698;2023-03-20T12:13:54;10.18;;;2.83;;
76606;SDS011;65498;50.916;4.698;2023-03-20T12:16:25;8.70;;;2.65;;
76606;SDS011;65498;50.916;4.698;2023-03-20T12:21:32;8.85;;;2.55;;
76606;SDS011;65498;50.916;4.698;2023-03-20T12:24:10;8.58;;;2.55;;
76606;SDS011;65498;50.916;4.698;2023-03-20T12:26:41;8.65;;;2.75;;
76606;SDS011;65498;50.916;4.698;2023-03-20T12:32:00;7.30;;;2.30;;
76606;SDS011;65498;50.916;4.698;2023-03-20T12:34:30;8.80;;;2.83;;
76606;SDS011;65498;50.916;4.698;2023-03-20T12:37:04;10.10;;;3.05;;
76606;SDS011;65498;50.916;4.698;2023-03-20T12:39:34;8.63;;;2.83;;
76606;SDS011;65498;50.916;4.698;2023-03-20T12:42:07;8.58;;;2.80;;
76606;SDS011;65498;50.916;4.698;2023-03-20T12:50:51;7.55;;;2.50;;
76606;SDS011;65498;50.916;4.698;2023-03-20T12:59:07;7.20;;;2.67;;
76606;SDS011;65498;50.916;4.698;2023-03-20T13:01:50;7.10;;;2.20;;
76606;SDS011;65498;50.916;4.698;2023-03-20T13:06:58;6.87;;;2.37;;
76606;SDS011;65498;50.916;4.698;2023-03-20T13:09:33;6.95;;;2.30;;
76606;SDS011;65498;50.916;4.698;2023-03-20T13:20:25;6.72;;;2.00;;
76606;SDS011;65498;50.916;4.698;2023-03-20T13:23:05;8.43;;;3.22;;
76606;SDS011;65498;50.916;4.698;2023-03-20T13:26:06;7.37;;;2.20;;
76606;SDS011;65498;50.916;4.698;2023-03-20T13:34:08;8.00;;;2.92;;
76606;SDS011;65498;50.916;4.698;2023-03-20T13:36:40;7.95;;;2.33;;
76606;SDS011;65498;50.916;4.698;2023-03-20T13:42:08;7.92;;;3.20;;
76606;SDS011;65498;50.916;4.698;2023-03-20T13:44:36;7.53;;;2.45;;
76606;SDS011;65498;50.916;4.698;2023-03-20T13:47:14;7.97;;;2.25;;
76606;SDS011;65498;50.916;4.698;2023-03-20T13:49:55;8.73;;;2.47;;
76606;SDS011;65498;50.916;4.698;2023-03-20T13:52:46;6.45;;;2.40;;
76606;SDS011;65498;50.916;4.698;2023-03-20T13:55:07;6.70;;;2.35;;
76606;SDS011;65498;50.916;4.698;2023-03-20T14:00:45;8.45;;;2.75;;
76606;SDS011;65498;50.916;4.698;2023-03-20T14:03:14;10.30;;;2.95;;
76606;SDS011;65498;50.916;4.698;2023-03-20T14:05:53;8.28;;;3.10;;
76606;SDS011;65498;50.916;4.698;2023-03-20T14:11:14;9.70;;;2.52;;
76606;SDS011;65498;50.916;4.698;2023-03-20T14:13:55;8.63;;;3.15;;
76606;SDS011;65498;50.916;4.698;2023-03-20T14:16:26;7.40;;;2.33;;
76606;SDS011;65498;50.916;4.698;2023-03-20T14:19:05;6.37;;;2.07;;
76606;SDS011;65498;50.916;4.698;2023-03-20T14:21:34;6.90;;;2.47;;
76606;SDS011;65498;50.916;4.698;2023-03-20T14:24:05;9.08;;;2.72;;
76606;SDS011;65498;50.916;4.698;2023-03-20T14:26:36;7.30;;;2.65;;
76606;SDS011;65498;50.916;4.698;2023-03-20T14:31:40;9.03;;;3.67;;
76606;SDS011;65498;50.916;4.698;2023-03-20T14:36:44;9.95;;;4.25;;
76606;SDS011;65498;50.916;4.698;2023-03-20T14:39:29;11.48;;;4.30;;
76606;SDS011;65498;50.916;4.698;2023-03-20T14:48:07;12.20;;;5.90;;
76606;SDS011;65498;50.916;4.698;2023-03-20T14:53:35;16.50;;;7.15;;
76606;SDS011;65498;50.916;4.698;2023-03-20T14:56:11;13.75;;;6.40;;
76606;SDS011;65498;50.916;4.698;2023-03-20T15:01:17;12.73;;;5.70;;
76606;SDS011;65498;50.916;4.698;2023-03-20T15:03:50;11.20;;;5.10;;
76606;SDS011;65498;50.916;4.698;2023-03-20T15:06:20;15.88;;;7.30;;
76606;SDS011;65498;50.916;4.698;2023-03-20T15:08:51;9.28;;;4.83;;
76606;SDS011;65498;50.916;4.698;2023-03-20T15:11:20;12.93;;;6.33;;
76606;SDS011;65498;50.916;4.698;2023-03-20T15:13:50;12.10;;;5.58;;
76606;SDS011;65498;50.916;4.698;2023-03-20T15:16:26;12.30;;;5.62;;
76606;SDS011;65498;50.916;4.698;2023-03-20T15:18:55;11.83;;;4.42;;
76606;SDS011;65498;50.916;4.698;2023-03-20T15:21:28;12.68;;;6.03;;
76606;SDS011;65498;50.916;4.698;2023-03-20T15:24:01;11.60;;;5.08;;
76606;SDS011;65498;50.916;4.698;2023-03-20T15:26:30;12.95;;;5.20;;
76606;SDS011;65498;50.916;4.698;2023-03-20T15:28:59;11.18;;;5.05;;
76606;SDS011;65498;50.916;4.698;2023-03-20T15:31:29;11.28;;;4.47;;
76606;SDS011;65498;50.916;4.698;2023-03-20T15:34:05;10.68;;;4.75;;
76606;SDS011;65498;50.916;4.698;2023-03-20T15:36:33;9.90;;;4.42;;
76606;SDS011;65498;50.916;4.698;2023-03-20T15:39:14;14.50;;;5.25;;
76606;SDS011;65498;50.916;4.698;2023-03-20T15:41:50;12.68;;;4.05;;
76606;SDS011;65498;50.916;4.698;2023-03-20T15:44:25;13.00;;;4.67;;
76606;SDS011;65498;50.916;4.698;2023-03-20T15:47:00;10.85;;;4.08;;
76606;SDS011;65498;50.916;4.698;2023-03-20T15:51:58;10.82;;;4.05;;
76606;SDS011;65498;50.916;4.698;2023-03-20T15:54:28;8.85;;;4.10;;
76606;SDS011;65498;50.916;4.698;2023-03-20T15:56:56;10.50;;;4.03;;
76606;SDS011;65498;50.916;4.698;2023-03-20T15:59:28;10.40;;;3.95;;
76606;SDS011;65498;50.916;4.698;2023-03-20T16:01:57;13.43;;;5.05;;
76606;SDS011;65498;50.916;4.698;2023-03-20T16:04:26;12.25;;;4.30;;
76606;SDS011;65498;50.916;4.698;2023-03-20T16:06:55;10.85;;;4.62;;
76606;SDS011;65498;50.916;4.698;2023-03-20T16:09:25;10.60;;;4.03;;
76606;SDS011;65498;50.916;4.698;2023-03-20T16:11:57;9.77;;;4.40;;
76606;SDS011;65498;50.916;4.698;2023-03-20T16:14:30;10.28;;;4.10;;
76606;SDS011;65498;50.916;4.698;2023-03-20T16:16:59;9.48;;;3.85;;
76606;SDS011;65498;50.916;4.698;2023-03-20T16:19:29;11.93;;;3.87;;
76606;SDS011;65498;50.916;4.698;2023-03-20T16:21:57;11.38;;;4.03;;
76606;SDS011;65498;50.916;4.698;2023-03-20T16:24:28;11.95;;;4.28;;
76606;SDS011;65498;50.916;4.698;2023-03-20T16:27:06;9.28;;;4.03;;
76606;SDS011;65498;50.916;4.698;2023-03-20T16:29:35;9.13;;;3.75;;
76606;SDS011;65498;50.916;4.698;2023-03-20T16:34:34;9.30;;;4.05;;
76606;SDS011;65498;50.916;4.698;2023-03-20T16:37:07;10.23;;;3.80;;
76606;SDS011;65498;50.916;4.698;2023-03-20T16:39:36;12.50;;;4.92;;
76606;SDS011;65498;50.916;4.698;2023-03-20T16:44:43;10.43;;;3.95;;
76606;SDS011;65498;50.916;4.698;2023-03-20T16:47:15;8.88;;;3.60;;
76606;SDS011;65498;50.916;4.698;2023-03-20T16:52:40;8.20;;;3.40;;
76606;SDS011;65498;50.916;4.698;2023-03-20T16:55:14;11.10;;;4.05;;
76606;SDS011;65498;50.916;4.698;2023-03-20T16:57:44;11.53;;;3.92;;
76606;SDS011;65498;50.916;4.698;2023-03-20T17:02:51;12.10;;;3.47;;
76606;SDS011;65498;50.916;4.698;2023-03-20T17:08:10;10.75;;;3.77;;
76606;SDS011;65498;50.916;4.698;2023-03-20T17:10:42;10.43;;;3.85;;